createdAt,value
2018-01-14T00:00:05.358Z,13.30
2018-01-14T00:02:32.900Z,14.57
2018-01-14T00:05:00.465Z,14.17
2018-01-14T00:07:28.764Z,14.47
2018-01-14T00:09:56.330Z,13.20
2018-01-14T00:12:24.647Z,14.63
2018-01-14T00:14:52.986Z,12.80
2018-01-14T00:17:20.532Z,12.27
2018-01-14T00:19:48.871Z,12.27
2018-01-14T00:22:17.425Z,12.83
2018-01-14T00:24:44.970Z,13.53
2018-01-14T00:27:12.531Z,12.77
2018-01-14T00:29:40.072Z,12.23
2018-01-14T00:32:07.641Z,14.37
2018-01-14T00:34:35.386Z,15.20
2018-01-14T00:37:02.947Z,12.40
2018-01-14T00:39:31.253Z,13.97
2018-01-14T00:41:59.584Z,13.43
2018-01-14T00:44:27.158Z,12.40
2018-01-14T00:46:54.755Z,15.03
2018-01-14T00:49:22.333Z,13.70
2018-01-14T00:51:49.895Z,14.40
2018-01-14T00:54:18.195Z,15.10
2018-01-14T00:56:46.529Z,14.10
2018-01-14T00:59:14.083Z,15.33
2018-01-14T01:01:41.666Z,13.83
2018-01-14T01:04:09.204Z,13.20
2018-01-14T01:06:36.791Z,13.73
2018-01-14T01:09:04.363Z,14.27
2018-01-14T01:11:31.893Z,16.70
2018-01-14T01:14:00.217Z,14.00
2018-01-14T01:16:27.760Z,14.57
2018-01-14T01:18:55.331Z,13.83
2018-01-14T01:21:22.872Z,14.47
2018-01-14T01:23:50.445Z,14.60
2018-01-14T01:26:17.999Z,14.90
2018-01-14T01:28:46.350Z,14.37
2018-01-14T01:31:13.888Z,15.30
2018-01-14T01:33:41.441Z,13.60
2018-01-14T01:36:09.001Z,15.70
2018-01-14T01:38:36.566Z,13.57
2018-01-14T01:41:04.123Z,14.27
2018-01-14T01:43:31.686Z,14.27
2018-01-14T01:45:59.910Z,15.50
2018-01-14T01:48:27.478Z,15.27
2018-01-14T01:50:55.014Z,15.63
2018-01-14T01:53:22.569Z,14.63
2018-01-14T01:55:50.868Z,13.33
2018-01-14T01:58:19.187Z,15.60
2018-01-14T02:00:46.738Z,14.30
2018-01-14T02:03:14.294Z,14.23
2018-01-14T02:05:41.851Z,14.37
2018-01-14T02:08:09.442Z,14.37
2018-01-14T02:10:37.021Z,15.60
2018-01-14T02:13:04.572Z,16.30
2018-01-14T02:15:32.906Z,14.00
2018-01-14T02:18:00.439Z,15.23
2018-01-14T02:20:27.999Z,15.10
2018-01-14T02:22:55.551Z,14.43
2018-01-14T02:25:23.111Z,13.93
2018-01-14T02:27:51.412Z,14.77
2018-01-14T02:30:19.739Z,16.57
2018-01-14T02:32:47.281Z,15.13
2018-01-14T02:35:14.835Z,15.47
2018-01-14T02:37:42.375Z,15.97
2018-01-14T02:40:09.941Z,17.07
2018-01-14T02:42:38.260Z,14.27
2018-01-14T02:45:06.598Z,15.80
2018-01-14T02:47:34.153Z,14.50
2018-01-14T02:50:01.720Z,14.67
2018-01-14T02:52:33.302Z,16.40
2018-01-14T02:55:01.645Z,17.33
2018-01-14T02:57:29.187Z,16.80
2018-01-14T02:59:57.524Z,14.73
2018-01-14T03:02:25.097Z,15.37
2018-01-14T03:04:52.653Z,19.20
2018-01-14T03:07:20.985Z,16.03
2018-01-14T03:09:48.547Z,14.07
2018-01-14T03:12:16.875Z,16.17
2018-01-14T03:14:44.424Z,17.07
2018-01-14T03:17:12.752Z,17.07
2018-01-14T03:19:40.298Z,17.50
2018-01-14T03:22:07.869Z,15.77
2018-01-14T03:24:35.416Z,16.37
2018-01-14T03:27:02.980Z,17.53
2018-01-14T03:29:30.531Z,16.30
2018-01-14T03:31:58.111Z,15.13
2018-01-14T03:34:25.664Z,16.70
2018-01-14T03:36:53.227Z,16.57
2018-01-14T03:39:20.796Z,16.20
2018-01-14T03:41:49.127Z,16.67
2018-01-14T03:44:16.700Z,16.53
2018-01-14T03:46:44.260Z,17.33
2018-01-14T03:49:12.588Z,16.90
2018-01-14T03:51:40.140Z,16.07
2018-01-14T03:54:08.477Z,16.20
2018-01-14T03:56:36.020Z,16.30
2018-01-14T03:59:03.593Z,16.03
2018-01-14T04:01:31.136Z,15.50
2018-01-14T04:03:58.696Z,15.47
2018-01-14T04:06:26.261Z,16.30
2018-01-14T04:08:54.601Z,16.17
2018-01-14T04:11:22.171Z,16.30
2018-01-14T04:13:49.743Z,15.43
2018-01-14T04:16:17.302Z,15.37
2018-01-14T04:18:44.879Z,16.90
2018-01-14T04:21:12.429Z,15.67
2018-01-14T04:23:40.017Z,17.33
2018-01-14T04:26:07.566Z,17.80
2018-01-14T04:28:35.125Z,17.10
2018-01-14T04:31:02.697Z,16.73
2018-01-14T04:33:30.693Z,16.10
2018-01-14T04:35:58.854Z,16.67
2018-01-14T04:38:26.441Z,16.40
2018-01-14T04:40:54.009Z,15.53
2018-01-14T04:43:21.566Z,16.27
2018-01-14T04:45:49.916Z,15.00
2018-01-14T04:48:18.232Z,16.97
2018-01-14T04:50:45.817Z,15.87
2018-01-14T04:53:13.364Z,17.33
2018-01-14T04:55:40.944Z,18.53
2018-01-14T04:58:08.497Z,17.03
2018-01-14T05:00:36.827Z,16.67
2018-01-14T05:03:04.368Z,16.37
2018-01-14T05:05:31.928Z,16.03
2018-01-14T05:07:59.506Z,16.13
2018-01-14T05:10:27.075Z,16.53
2018-01-14T05:12:54.679Z,16.40
2018-01-14T05:15:22.220Z,16.80
2018-01-14T05:17:50.551Z,17.40
2018-01-14T05:20:18.102Z,17.83
2018-01-14T05:22:46.435Z,15.77
2018-01-14T05:25:13.993Z,16.50
2018-01-14T05:27:42.323Z,17.73
2018-01-14T05:30:09.869Z,16.87
2018-01-14T05:32:38.209Z,17.83
2018-01-14T05:35:05.766Z,17.63
2018-01-14T05:37:34.091Z,18.20
2018-01-14T05:40:01.650Z,17.10
2018-01-14T05:42:29.987Z,17.13
2018-01-14T05:44:57.548Z,18.73
2018-01-14T05:47:25.116Z,17.00
2018-01-14T05:49:52.661Z,17.60
2018-01-14T05:52:20.208Z,17.20
2018-01-14T05:54:47.786Z,15.77
2018-01-14T05:57:15.333Z,17.87
2018-01-14T05:59:42.897Z,16.50
2018-01-14T06:02:10.440Z,16.27
2018-01-14T06:04:38.009Z,15.67
2018-01-14T06:07:06.315Z,16.60
2018-01-14T06:09:33.881Z,16.70
2018-01-14T06:12:02.192Z,16.03
2018-01-14T06:14:30.526Z,17.50
2018-01-14T06:16:58.087Z,17.07
2018-01-14T06:19:25.676Z,17.20
2018-01-14T06:21:53.224Z,16.53
2018-01-14T06:24:20.788Z,15.70
2018-01-14T06:26:48.341Z,16.20
2018-01-14T06:29:15.889Z,16.93
2018-01-14T06:31:44.219Z,16.43
2018-01-14T06:34:11.770Z,15.57
2018-01-14T06:36:40.109Z,15.00
2018-01-14T06:39:07.656Z,14.00
2018-01-14T06:41:35.989Z,18.87
2018-01-14T06:44:03.537Z,17.30
2018-01-14T06:46:31.111Z,17.40
2018-01-14T06:48:58.656Z,15.57
2018-01-14T06:51:26.224Z,18.07
2018-01-14T06:53:53.782Z,16.20
2018-01-14T06:56:22.118Z,16.83
2018-01-14T06:58:49.667Z,14.80
2018-01-14T07:01:17.992Z,17.17
2018-01-14T07:03:45.540Z,16.97
2018-01-14T07:06:13.133Z,14.63
2018-01-14T07:08:41.450Z,16.27
2018-01-14T07:11:09.778Z,15.47
2018-01-14T07:13:37.344Z,17.53
2018-01-14T07:16:04.913Z,17.33
2018-01-14T07:18:33.248Z,17.70
2018-01-14T07:21:00.800Z,18.70
2018-01-14T07:23:29.128Z,16.07
2018-01-14T07:25:56.681Z,15.70
2018-01-14T07:28:25.023Z,17.97
2018-01-14T07:30:52.592Z,16.40
2018-01-14T07:33:20.194Z,15.13
2018-01-14T07:35:47.756Z,18.03
2018-01-14T07:38:16.227Z,17.50
2018-01-14T07:40:43.785Z,15.83
2018-01-14T07:43:12.125Z,17.70
2018-01-14T07:45:40.441Z,16.17
2018-01-14T07:48:08.752Z,16.17
2018-01-14T07:50:36.337Z,16.47
2018-01-14T07:53:03.911Z,15.97
2018-01-14T07:55:32.250Z,16.17
2018-01-14T07:57:59.805Z,16.37
2018-01-14T08:00:27.380Z,17.23
2018-01-14T08:02:56.228Z,16.50
2018-01-14T08:05:23.852Z,15.93
2018-01-14T08:07:51.405Z,15.90
2018-01-14T08:10:18.968Z,16.80
2018-01-14T08:12:46.555Z,16.50
2018-01-14T08:15:14.135Z,16.07
2018-01-14T08:17:41.684Z,16.20
2018-01-14T08:20:09.260Z,16.60
2018-01-14T08:22:36.860Z,16.60
2018-01-14T08:25:05.197Z,15.40
2018-01-14T08:27:32.763Z,14.40
2018-01-14T08:30:01.095Z,15.17
2018-01-14T08:32:28.672Z,16.47
2018-01-14T08:34:56.263Z,15.13
2018-01-14T08:37:23.867Z,17.33
2018-01-14T08:39:52.116Z,15.33
2018-01-14T08:42:20.478Z,15.40
2018-01-14T08:44:48.030Z,15.43
2018-01-14T08:47:15.607Z,17.73
2018-01-14T08:49:43.184Z,17.20
2018-01-14T08:52:10.753Z,16.53
2018-01-14T08:54:39.106Z,15.53
2018-01-14T08:57:06.683Z,16.23
2018-01-14T08:59:35.048Z,14.90
2018-01-14T09:02:03.270Z,14.43
2018-01-14T09:04:30.841Z,13.40
2018-01-14T09:06:58.406Z,16.90
2018-01-14T09:09:26.905Z,16.40
2018-01-14T09:11:55.221Z,14.70
2018-01-14T09:14:23.560Z,16.07
2018-01-14T09:16:51.114Z,17.37
2018-01-14T09:19:18.695Z,16.47
2018-01-14T09:21:46.248Z,16.80
2018-01-14T09:24:14.595Z,16.90
2018-01-14T09:26:42.932Z,16.50
2018-01-14T09:29:10.540Z,16.10
2018-01-14T09:31:38.096Z,18.17
2018-01-14T09:34:05.668Z,15.63
2018-01-14T09:36:33.266Z,15.90
2018-01-14T09:39:00.840Z,15.30
2018-01-14T09:41:28.396Z,16.00
2018-01-14T09:43:55.971Z,16.00
2018-01-14T09:46:23.520Z,16.87
2018-01-14T09:48:51.073Z,15.67
2018-01-14T09:51:18.695Z,15.70
2018-01-14T09:53:46.253Z,15.90
2018-01-14T09:56:13.875Z,15.47
2018-01-14T09:58:41.432Z,16.07
2018-01-14T10:01:09.773Z,15.70
2018-01-14T10:03:38.093Z,15.00
2018-01-14T10:06:05.670Z,16.33
2018-01-14T10:08:33.217Z,15.03
2018-01-14T10:11:00.786Z,15.90
2018-01-14T10:13:28.331Z,16.50
2018-01-14T10:15:56.165Z,16.60
2018-01-14T10:18:23.711Z,15.63
2018-01-14T10:20:51.286Z,15.63
2018-01-14T10:23:18.830Z,14.10
2018-01-14T10:25:46.395Z,13.43
2018-01-14T10:28:14.625Z,15.53
2018-01-14T10:30:42.977Z,15.73
2018-01-14T10:33:10.527Z,14.57
2018-01-14T10:35:38.859Z,15.17
2018-01-14T10:38:06.400Z,14.43
2018-01-14T10:40:34.706Z,15.17
2018-01-14T10:43:03.171Z,16.33
2018-01-14T10:45:31.033Z,14.70
2018-01-14T10:47:59.452Z,15.77
2018-01-14T10:50:27.139Z,15.97
2018-01-14T10:53:03.324Z,15.37
2018-01-14T10:55:36.052Z,15.40
2018-01-14T10:58:03.639Z,14.23
2018-01-14T11:00:36.986Z,14.20
2018-01-14T11:03:05.362Z,13.53
2018-01-14T11:05:33.707Z,14.13
2018-01-14T11:08:02.036Z,13.43
2018-01-14T11:10:29.581Z,14.23
2018-01-14T11:12:57.179Z,14.80
2018-01-14T11:15:24.739Z,14.40
2018-01-14T11:17:53.091Z,15.93
2018-01-14T11:20:20.639Z,15.03
2018-01-14T11:22:48.963Z,14.10
2018-01-14T11:25:16.575Z,14.70
2018-01-14T11:27:44.135Z,14.10
2018-01-14T11:30:11.675Z,15.93
2018-01-14T11:32:39.244Z,14.53
2018-01-14T11:35:06.791Z,15.37
2018-01-14T11:37:34.463Z,16.97
2018-01-14T11:40:02.018Z,15.10
2018-01-14T11:42:29.572Z,14.83
2018-01-14T11:44:57.139Z,14.63
2018-01-14T11:47:24.690Z,15.47
2018-01-14T11:49:53.010Z,15.93
2018-01-14T11:52:20.551Z,16.43
2018-01-14T11:54:48.127Z,16.30
2018-01-14T11:57:15.677Z,15.37
2018-01-14T11:59:43.242Z,14.23
2018-01-14T12:02:10.789Z,14.67
2018-01-14T12:04:38.355Z,18.70
2018-01-14T12:07:05.904Z,15.97
2018-01-14T12:09:33.467Z,16.17
2018-01-14T12:12:01.019Z,16.17
2018-01-14T12:14:29.371Z,13.43
2018-01-14T12:16:56.979Z,14.57
2018-01-14T12:19:24.535Z,14.80
2018-01-14T12:21:52.084Z,14.83
2018-01-14T12:24:20.419Z,17.70
2018-01-14T12:26:47.959Z,15.77
2018-01-14T12:29:15.498Z,15.23
2018-01-14T12:31:43.076Z,13.90
2018-01-14T12:37:12.763Z,15.97
2018-01-14T12:39:40.308Z,14.77
2018-01-14T12:42:08.690Z,14.50
2018-01-14T12:44:37.122Z,15.37
2018-01-14T12:47:05.577Z,15.90
2018-01-14T12:49:33.153Z,15.20
2018-01-14T12:52:00.721Z,14.33
2018-01-14T12:54:28.276Z,14.80
2018-01-14T12:56:56.604Z,15.07
2018-01-14T12:59:24.188Z,14.97
2018-01-14T13:01:51.815Z,14.67
2018-01-14T13:04:19.387Z,14.60
2018-01-14T13:06:46.946Z,15.10
2018-01-14T13:09:14.493Z,13.77
2018-01-14T13:11:42.054Z,15.50
2018-01-14T13:14:09.605Z,16.37
2018-01-14T13:16:37.153Z,15.67
2018-01-14T13:19:05.733Z,16.53
2018-01-14T13:21:33.360Z,15.10
2018-01-14T13:24:01.048Z,15.30
2018-01-14T13:26:28.610Z,15.93
2018-01-14T13:28:57.044Z,13.83
2018-01-14T13:31:24.597Z,16.57
2018-01-14T13:33:53.028Z,15.23
2018-01-14T13:36:20.626Z,14.60
2018-01-14T13:38:48.309Z,14.63
2018-01-14T13:41:15.990Z,15.73
2018-01-14T13:43:43.563Z,14.80
2018-01-14T13:46:11.261Z,16.03
2018-01-14T13:48:39.043Z,14.50
2018-01-14T13:51:06.893Z,15.87
2018-01-14T13:53:34.437Z,16.00
2018-01-14T13:56:11.263Z,14.57
2018-01-14T13:58:38.829Z,15.60
2018-01-14T14:01:06.453Z,14.37
2018-01-14T14:03:34.034Z,15.57
2018-01-14T14:06:01.633Z,15.20
2018-01-14T14:08:29.179Z,17.23
2018-01-14T14:10:56.731Z,14.50
2018-01-14T14:13:24.367Z,14.43
2018-01-14T14:15:51.991Z,15.70
2018-01-14T14:18:20.295Z,14.47
2018-01-14T14:20:47.877Z,14.27
2018-01-14T14:23:15.442Z,13.90
2018-01-14T14:25:43.018Z,15.23
2018-01-14T14:28:11.351Z,15.20
2018-01-14T14:30:43.878Z,15.30
2018-01-14T14:33:15.847Z,14.97
2018-01-14T14:35:43.399Z,14.60
2018-01-14T14:38:10.963Z,13.23
2018-01-14T14:40:38.542Z,15.10
2018-01-14T14:43:06.140Z,14.00
2018-01-14T14:45:33.723Z,15.73
2018-01-14T14:48:02.282Z,16.00
2018-01-14T14:50:29.836Z,16.10
2018-01-14T14:52:57.402Z,17.40
2018-01-14T14:55:24.956Z,16.00
2018-01-14T14:57:52.527Z,16.83
2018-01-14T15:00:20.218Z,16.80
2018-01-14T15:02:47.793Z,16.80
2018-01-14T15:05:17.082Z,16.50
2018-01-14T15:07:44.641Z,17.23
2018-01-14T15:10:12.195Z,17.03
2018-01-14T15:12:39.736Z,16.77
2018-01-14T15:15:07.306Z,16.00
2018-01-14T15:17:34.842Z,16.70
2018-01-14T15:20:02.404Z,17.10
2018-01-14T15:22:30.720Z,16.80
2018-01-14T15:24:59.109Z,16.67
2018-01-14T15:27:27.422Z,16.77
2018-01-14T15:29:55.746Z,16.33
2018-01-14T15:32:23.297Z,16.57
2018-01-14T15:34:51.627Z,16.90
2018-01-14T15:37:19.200Z,16.73
2018-01-14T15:39:46.771Z,17.90
2018-01-14T15:42:15.095Z,17.67
2018-01-14T15:44:42.658Z,17.43
2018-01-14T15:47:10.976Z,17.53
2018-01-14T15:49:38.533Z,17.13
2018-01-14T15:52:06.091Z,18.07
2018-01-14T15:54:33.845Z,18.90
2018-01-14T15:57:01.431Z,17.30
2018-01-14T15:59:28.971Z,19.00
2018-01-14T16:01:57.327Z,19.77
2018-01-14T16:04:24.887Z,18.00
2018-01-14T16:06:52.443Z,16.97
2018-01-14T16:09:20.487Z,19.80
2018-01-14T16:11:48.665Z,18.67
2018-01-14T16:14:16.208Z,20.07
2018-01-14T16:16:43.767Z,21.00
2018-01-14T16:19:11.315Z,19.83
2018-01-14T16:21:39.671Z,18.90
2018-01-14T16:24:07.215Z,20.27
2018-01-14T16:26:34.787Z,20.97
2018-01-14T16:29:03.100Z,20.77
2018-01-14T16:31:30.634Z,20.63
2018-01-14T16:33:58.265Z,19.27
2018-01-14T16:36:26.555Z,20.77
2018-01-14T16:38:54.131Z,19.27
2018-01-14T16:41:22.446Z,21.00
2018-01-14T16:43:50.779Z,19.20
2018-01-14T16:46:18.318Z,19.60
2018-01-14T16:48:46.663Z,22.33
2018-01-14T16:51:14.238Z,21.30
2018-01-14T16:53:41.790Z,21.47
2018-01-14T16:56:10.103Z,19.50
2018-01-14T16:58:38.427Z,20.47
2018-01-14T17:01:05.972Z,19.63
2018-01-14T17:03:34.299Z,21.07
2018-01-14T17:06:01.951Z,19.10
2018-01-14T17:08:29.511Z,20.20
2018-01-14T17:10:57.083Z,19.63
2018-01-14T17:13:24.643Z,19.93
2018-01-14T17:15:52.186Z,21.27
2018-01-14T17:18:19.751Z,20.80
2018-01-14T17:20:47.293Z,19.87
2018-01-14T17:23:14.827Z,19.67
2018-01-14T17:25:42.385Z,20.73
2018-01-14T17:28:10.627Z,20.17
2018-01-14T17:30:38.961Z,18.70
2018-01-14T17:33:06.500Z,19.87
2018-01-14T17:35:34.055Z,19.77
2018-01-14T17:38:01.775Z,20.57
2018-01-14T17:40:29.335Z,19.60
2018-01-14T17:42:56.874Z,19.40
2018-01-14T17:45:24.439Z,19.50
2018-01-14T17:48:02.793Z,21.57
2018-01-14T17:50:36.050Z,19.07
2018-01-14T17:53:09.134Z,20.23
2018-01-14T17:55:44.796Z,19.43
2018-01-14T17:58:20.336Z,19.80
2018-01-14T18:00:52.102Z,17.27
2018-01-14T18:03:26.115Z,19.00
2018-01-14T18:05:57.935Z,19.43
2018-01-14T18:08:27.126Z,17.03
2018-01-14T18:11:00.468Z,33.50
2018-01-14T18:13:31.999Z,21.40
2018-01-14T18:16:02.851Z,22.50
2018-01-14T18:18:30.416Z,20.20
2018-01-14T18:21:00.973Z,20.27
2018-01-14T18:23:29.663Z,18.97
2018-01-14T18:25:57.211Z,17.70
2018-01-14T18:28:24.776Z,17.90
2018-01-14T18:30:52.420Z,17.50
2018-01-14T18:33:26.033Z,17.53
2018-01-14T18:35:53.566Z,17.33
2018-01-14T18:38:21.882Z,17.27
2018-01-14T18:40:54.571Z,17.50
2018-01-14T18:43:27.273Z,17.30
2018-01-14T18:46:09.376Z,16.47
2018-01-14T18:48:37.087Z,17.20
2018-01-14T18:51:05.404Z,16.27
2018-01-14T18:53:33.722Z,15.80
2018-01-14T18:56:01.254Z,17.10
2018-01-14T18:58:28.819Z,16.20
2018-01-14T19:00:56.396Z,15.50
2018-01-14T19:03:23.985Z,16.80
2018-01-14T19:05:51.559Z,17.27
2018-01-14T19:08:19.118Z,17.73
2018-01-14T19:10:46.667Z,16.80
2018-01-14T19:13:17.306Z,16.43
2018-01-14T19:15:49.439Z,15.50
2018-01-14T19:18:18.093Z,17.03
2018-01-14T19:20:45.641Z,18.30
2018-01-14T19:23:13.181Z,16.30
2018-01-14T19:25:40.738Z,17.57
2018-01-14T19:28:08.283Z,15.20
2018-01-14T19:30:36.670Z,15.20
2018-01-14T19:33:04.212Z,16.77
2018-01-14T19:35:31.772Z,16.33
2018-01-14T19:37:59.312Z,15.83
2018-01-14T19:40:26.888Z,16.50
2018-01-14T19:42:54.448Z,15.70
2018-01-14T19:45:22.024Z,16.57
2018-01-14T19:47:53.478Z,17.20
2018-01-14T19:50:21.649Z,16.23
2018-01-14T19:52:49.200Z,17.87
2018-01-14T19:55:16.790Z,16.43
2018-01-14T19:57:44.340Z,17.17
2018-01-14T20:00:11.965Z,16.17
2018-01-14T20:02:39.532Z,17.07
2018-01-14T20:05:07.076Z,18.53
2018-01-14T20:07:35.412Z,18.00
2018-01-14T20:10:02.996Z,19.03
2018-01-14T20:12:30.563Z,15.37
2018-01-14T20:14:58.122Z,16.60
2018-01-14T20:17:26.477Z,17.00
2018-01-14T20:19:54.036Z,18.73
2018-01-14T20:22:21.595Z,15.70
2018-01-14T20:24:49.207Z,17.23
2018-01-14T20:27:16.759Z,17.20
2018-01-14T20:29:44.304Z,17.77
2018-01-14T20:32:11.884Z,15.80
2018-01-14T20:34:39.467Z,17.27
2018-01-14T20:37:07.018Z,19.63
2018-01-14T20:39:34.579Z,17.37
2018-01-14T20:42:02.184Z,18.40
2018-01-14T20:44:30.554Z,17.97
2018-01-14T20:47:03.805Z,17.40
2018-01-14T20:49:35.997Z,18.20
2018-01-14T20:52:03.687Z,17.33
2018-01-14T20:54:32.116Z,16.93
2018-01-14T20:56:59.730Z,18.80
2018-01-14T20:59:27.307Z,18.80
2018-01-14T21:01:54.840Z,18.00
2018-01-14T21:04:26.756Z,18.13
2018-01-14T21:06:54.304Z,18.23
2018-01-14T21:09:21.871Z,18.00
2018-01-14T21:11:49.415Z,18.57
2018-01-14T21:14:17.042Z,19.20
2018-01-14T21:16:44.603Z,17.30
2018-01-14T21:19:12.134Z,18.20
2018-01-14T21:21:40.455Z,17.50
2018-01-14T21:24:07.997Z,19.23
2018-01-14T21:26:35.562Z,19.27
2018-01-14T21:29:03.108Z,18.30
2018-01-14T21:31:31.579Z,19.93
2018-01-14T21:33:59.124Z,19.03
2018-01-14T21:36:26.687Z,19.70
2018-01-14T21:38:54.227Z,18.70
2018-01-14T21:41:21.795Z,19.47
2018-01-14T21:43:49.331Z,19.77
2018-01-14T21:46:16.895Z,18.77
2018-01-14T21:48:45.208Z,17.53
2018-01-14T21:51:13.538Z,19.77
2018-01-14T21:53:41.081Z,19.63
2018-01-14T21:56:08.649Z,18.73
2018-01-14T21:58:36.200Z,18.70
2018-01-14T22:01:03.759Z,19.57
2018-01-14T22:03:31.300Z,20.07
2018-01-14T22:05:58.953Z,20.00
2018-01-14T22:08:27.293Z,21.43
2018-01-14T22:10:54.831Z,19.87
2018-01-14T22:13:22.391Z,19.90
2018-01-14T22:15:50.702Z,19.67
2018-01-14T22:18:18.263Z,20.10
2018-01-14T22:20:46.576Z,20.00
2018-01-14T22:23:14.899Z,22.43
2018-01-14T22:25:42.439Z,19.67
2018-01-14T22:28:10.040Z,19.60
2018-01-14T22:30:38.351Z,19.57
2018-01-14T22:33:06.681Z,19.90
2018-01-14T22:35:34.223Z,20.40
2018-01-14T22:38:01.781Z,21.23
2018-01-14T22:40:29.333Z,20.97
2018-01-14T22:42:56.903Z,20.10
2018-01-14T22:45:24.450Z,19.60
2018-01-14T22:47:52.002Z,20.93
2018-01-14T22:50:19.540Z,20.50
2018-01-14T22:52:47.851Z,20.20
2018-01-14T22:55:15.412Z,20.50
2018-01-14T22:57:43.724Z,19.90
2018-01-14T23:00:12.752Z,20.30
2018-01-14T23:02:41.063Z,19.63
2018-01-14T23:05:08.634Z,19.60
2018-01-14T23:07:36.943Z,20.90
2018-01-14T23:10:04.508Z,19.30
2018-01-14T23:12:32.814Z,18.60
2018-01-14T23:15:06.980Z,19.20
2018-01-14T23:17:34.520Z,20.73
2018-01-14T23:20:02.085Z,19.90
2018-01-14T23:22:29.685Z,21.43
2018-01-14T23:24:57.227Z,20.40
2018-01-14T23:27:24.774Z,18.70
2018-01-14T23:29:53.102Z,18.57
2018-01-14T23:32:20.645Z,20.23
2018-01-14T23:34:48.213Z,19.70
2018-01-14T23:37:15.756Z,20.00
2018-01-14T23:39:43.291Z,19.00
2018-01-14T23:42:10.852Z,20.20
2018-01-14T23:44:38.396Z,20.50
2018-01-14T23:47:05.959Z,19.70
2018-01-14T23:49:34.273Z,17.53
2018-01-14T23:52:02.614Z,21.47
2018-01-14T23:54:30.159Z,20.47
2018-01-14T23:56:58.483Z,20.63
2018-01-14T23:59:26.024Z,20.67
